sensor_id;sensor_type;location;lat;lon;timestamp;pressure;altitude;pressure_sealevel;temperature;humidity
66857;BME280;53766;50.280;19.160;2023-05-09T00:00:36;99479.81;;;17.82;48.56
66857;BME280;53766;50.280;19.160;2023-05-09T00:03:11;99479.00;;;17.82;48.44
66857;BME280;53766;50.280;19.160;2023-05-09T00:05:40;99479.00;;;17.82;48.46
66857;BME280;53766;50.280;19.160;2023-05-09T00:08:08;99475.66;;;17.80;48.56
66857;BME280;53766;50.280;19.160;2023-05-09T00:10:35;99479.13;;;17.80;48.41
66857;BME280;53766;50.280;19.160;2023-05-09T00:13:03;99475.66;;;17.80;48.53
66857;BME280;53766;50.280;19.160;2023-05-09T00:15:30;99480.16;;;17.79;48.56
66857;BME280;53766;50.280;19.160;2023-05-09T00:17:58;99474.81;;;17.79;48.48
66857;BME280;53766;50.280;19.160;2023-05-09T00:20:25;99471.31;;;17.79;48.58
66857;BME280;53766;50.280;19.160;2023-05-09T00:22:53;99464.34;;;17.78;48.41
66857;BME280;53766;50.280;19.160;2023-05-09T00:25:21;99464.34;;;17.78;48.39
66857;BME280;53766;50.280;19.160;2023-05-09T00:27:48;99464.34;;;17.78;48.38
66857;BME280;53766;50.280;19.160;2023-05-09T00:30:16;99456.34;;;17.78;48.56
66857;BME280;53766;50.280;19.160;2023-05-09T00:32:43;99467.00;;;17.78;48.46
66857;BME280;53766;50.280;19.160;2023-05-09T00:35:11;99471.50;;;17.77;48.46
66857;BME280;53766;50.280;19.160;2023-05-09T00:37:39;99453.84;;;17.76;48.42
66857;BME280;53766;50.280;19.160;2023-05-09T00:40:07;99457.31;;;17.77;48.34
66857;BME280;53766;50.280;19.160;2023-05-09T00:42:35;99462.03;;;17.75;48.43
66857;BME280;53766;50.280;19.160;2023-05-09T00:45:03;99451.38;;;17.75;48.50
66857;BME280;53766;50.280;19.160;2023-05-09T00:47:31;99455.03;;;17.74;48.39
66857;BME280;53766;50.280;19.160;2023-05-09T00:49:58;99455.03;;;17.74;48.55
66857;BME280;53766;50.280;19.160;2023-05-09T00:52:26;99456.69;;;17.75;48.36
66857;BME280;53766;50.280;19.160;2023-05-09T00:54:54;99449.69;;;17.74;48.43
66857;BME280;53766;50.280;19.160;2023-05-09T00:57:22;99445.38;;;17.73;48.20
66857;BME280;53766;50.280;19.160;2023-05-09T00:59:49;99443.53;;;17.73;48.38
66857;BME280;53766;50.280;19.160;2023-05-09T01:02:17;99444.53;;;17.72;48.38
66857;BME280;53766;50.280;19.160;2023-05-09T01:04:45;99442.72;;;17.73;48.33
66857;BME280;53766;50.280;19.160;2023-05-09T01:07:29;99441.03;;;17.72;48.48
66857;BME280;53766;50.280;19.160;2023-05-09T01:10:10;99448.06;;;17.73;48.37
66857;BME280;53766;50.280;19.160;2023-05-09T01:15:27;99440.22;;;17.71;48.49
66857;BME280;53766;50.280;19.160;2023-05-09T01:18:02;99434.06;;;17.71;48.23
66857;BME280;53766;50.280;19.160;2023-05-09T01:20:37;99431.41;;;17.71;48.29
66857;BME280;53766;50.280;19.160;2023-05-09T01:31:25;99436.91;;;17.69;48.12
66857;BME280;53766;50.280;19.160;2023-05-09T01:33:57;99437.06;;;17.67;48.37
66857;BME280;53766;50.280;19.160;2023-05-09T01:36:28;99429.06;;;17.67;48.28
66857;BME280;53766;50.280;19.160;2023-05-09T01:38:57;99432.56;;;17.68;48.21
66857;BME280;53766;50.280;19.160;2023-05-09T01:41:29;99434.41;;;17.67;48.19
66857;BME280;53766;50.280;19.160;2023-05-09T01:43:59;99430.09;;;17.66;48.23
66857;BME280;53766;50.280;19.160;2023-05-09T01:46:29;99432.75;;;17.66;48.25
66857;BME280;53766;50.280;19.160;2023-05-09T01:48:57;99430.09;;;17.66;48.41
66857;BME280;53766;50.280;19.160;2023-05-09T01:51:26;99425.75;;;17.65;48.18
66857;BME280;53766;50.280;19.160;2023-05-09T01:53:55;99432.75;;;17.66;48.21
66857;BME280;53766;50.280;19.160;2023-05-09T01:56:24;99428.41;;;17.65;48.22
66857;BME280;53766;50.280;19.160;2023-05-09T01:58:54;99426.78;;;17.64;48.30
66857;BME280;53766;50.280;19.160;2023-05-09T02:01:22;99422.44;;;17.63;48.30
66857;BME280;53766;50.280;19.160;2023-05-09T02:03:51;99424.94;;;17.65;48.23
66857;BME280;53766;50.280;19.160;2023-05-09T02:06:22;99424.09;;;17.64;48.13
66857;BME280;53766;50.280;19.160;2023-05-09T02:08:50;99417.97;;;17.64;48.10
66857;BME280;53766;50.280;19.160;2023-05-09T02:11:18;99418.78;;;17.64;48.17
66857;BME280;53766;50.280;19.160;2023-05-09T02:13:46;99414.44;;;17.63;48.16
66857;BME280;53766;50.280;19.160;2023-05-09T02:16:13;99417.09;;;17.63;48.00
66857;BME280;53766;50.280;19.160;2023-05-09T02:18:41;99416.28;;;17.63;48.06
66857;BME280;53766;50.280;19.160;2023-05-09T02:21:08;99415.47;;;17.62;48.22
66857;BME280;53766;50.280;19.160;2023-05-09T02:23:36;99411.13;;;17.61;48.23
66857;BME280;53766;50.280;19.160;2023-05-09T02:26:04;99408.47;;;17.61;48.13
66857;BME280;53766;50.280;19.160;2023-05-09T02:28:33;99415.47;;;17.62;47.66
66857;BME280;53766;50.280;19.160;2023-05-09T02:31:04;99413.78;;;17.61;48.04
66857;BME280;53766;50.280;19.160;2023-05-09T02:33:37;99412.16;;;17.60;47.87
66857;BME280;53766;50.280;19.160;2023-05-09T02:36:05;99416.44;;;17.61;48.00
66857;BME280;53766;50.280;19.160;2023-05-09T02:38:34;99410.47;;;17.59;47.92
66857;BME280;53766;50.280;19.160;2023-05-09T02:41:02;99410.47;;;17.59;47.88
66857;BME280;53766;50.280;19.160;2023-05-09T02:43:30;99410.47;;;17.59;47.93
66857;BME280;53766;50.280;19.160;2023-05-09T02:45:57;99408.81;;;17.58;47.96
66857;BME280;53766;50.280;19.160;2023-05-09T02:48:25;99412.31;;;17.59;47.92
66857;BME280;53766;50.280;19.160;2023-05-09T02:50:52;99402.47;;;17.59;48.02
66857;BME280;53766;50.280;19.160;2023-05-09T02:53:19;99408.81;;;17.58;47.92
66857;BME280;53766;50.280;19.160;2023-05-09T02:55:47;99398.16;;;17.58;47.93
66857;BME280;53766;50.280;19.160;2023-05-09T02:58:14;99408.00;;;17.58;47.94
66857;BME280;53766;50.280;19.160;2023-05-09T03:00:42;99407.19;;;17.57;47.69
66857;BME280;53766;50.280;19.160;2023-05-09T03:03:09;99405.50;;;17.56;47.75
66857;BME280;53766;50.280;19.160;2023-05-09T03:05:37;99401.00;;;17.57;47.70
66857;BME280;53766;50.280;19.160;2023-05-09T03:08:05;99404.69;;;17.56;47.77
66857;BME280;53766;50.280;19.160;2023-05-09T03:10:33;99405.50;;;17.56;47.73
66857;BME280;53766;50.280;19.160;2023-05-09T03:13:00;99405.66;;;17.55;47.89
66857;BME280;53766;50.280;19.160;2023-05-09T03:15:28;99405.50;;;17.56;47.71
66857;BME280;53766;50.280;19.160;2023-05-09T03:17:55;99409.19;;;17.55;47.73
66857;BME280;53766;50.280;19.160;2023-05-09T03:20:23;99407.34;;;17.56;47.72
66857;BME280;53766;50.280;19.160;2023-05-09T03:22:50;99408.16;;;17.56;47.73
66857;BME280;53766;50.280;19.160;2023-05-09T03:25:20;99411.00;;;17.55;47.79
66857;BME280;53766;50.280;19.160;2023-05-09T03:27:48;99412.84;;;17.54;47.80
66857;BME280;53766;50.280;19.160;2023-05-09T03:30:15;99413.66;;;17.55;47.83
66857;BME280;53766;50.280;19.160;2023-05-09T03:32:43;99412.84;;;17.54;47.64
66857;BME280;53766;50.280;19.160;2023-05-09T03:35:10;99413.84;;;17.53;47.75
66857;BME280;53766;50.280;19.160;2023-05-09T03:37:38;99411.00;;;17.55;47.71
66857;BME280;53766;50.280;19.160;2023-05-09T03:40:06;99418.16;;;17.54;47.77
66857;BME280;53766;50.280;19.160;2023-05-09T03:42:34;99417.34;;;17.54;47.72
66857;BME280;53766;50.280;19.160;2023-05-09T03:45:01;99412.84;;;17.54;47.57
66857;BME280;53766;50.280;19.160;2023-05-09T03:47:28;99413.66;;;17.55;47.69
66857;BME280;53766;50.280;19.160;2023-05-09T03:49:56;99409.19;;;17.55;47.64
66857;BME280;53766;50.280;19.160;2023-05-09T03:52:23;99407.34;;;17.56;47.78
66857;BME280;53766;50.280;19.160;2023-05-09T03:54:50;99410.84;;;17.56;47.70
66857;BME280;53766;50.280;19.160;2023-05-09T03:57:18;99408.34;;;17.55;47.78
66857;BME280;53766;50.280;19.160;2023-05-09T03:59:46;99417.19;;;17.55;47.87
66857;BME280;53766;50.280;19.160;2023-05-09T04:02:13;99408.16;;;17.56;47.86
66857;BME280;53766;50.280;19.160;2023-05-09T04:04:41;99407.19;;;17.57;48.04
66857;BME280;53766;50.280;19.160;2023-05-09T04:07:08;99422.16;;;17.58;48.11
66857;BME280;53766;50.280;19.160;2023-05-09T04:09:35;99411.31;;;17.60;48.18
66857;BME280;53766;50.280;19.160;2023-05-09T04:12:03;99407.47;;;17.62;48.44
66857;BME280;53766;50.280;19.160;2023-05-09T04:14:30;99408.13;;;17.64;48.24
66857;BME280;53766;50.280;19.160;2023-05-09T04:16:58;99407.97;;;17.66;48.29
66857;BME280;53766;50.280;19.160;2023-05-09T04:19:25;99414.78;;;17.68;48.25
66857;BME280;53766;50.280;19.160;2023-05-09T04:21:53;99414.78;;;17.68;48.20
66857;BME280;53766;50.280;19.160;2023-05-09T04:24:20;99410.09;;;17.71;48.34
66857;BME280;53766;50.280;19.160;2023-05-09T04:26:48;99410.91;;;17.71;48.35
66857;BME280;53766;50.280;19.160;2023-05-09T04:29:15;99409.91;;;17.72;48.27
66857;BME280;53766;50.280;19.160;2023-05-09T04:31:43;99400.09;;;17.73;48.32
66857;BME280;53766;50.280;19.160;2023-05-09T04:34:10;99408.75;;;17.75;48.34
66857;BME280;53766;50.280;19.160;2023-05-09T04:36:38;99411.41;;;17.75;48.36
66857;BME280;53766;50.280;19.160;2023-05-09T04:39:05;99404.22;;;17.75;48.25
66857;BME280;53766;50.280;19.160;2023-05-09T04:41:34;99405.72;;;17.78;48.31
66857;BME280;53766;50.280;19.160;2023-05-09T04:44:01;99405.72;;;17.78;48.28
66857;BME280;53766;50.280;19.160;2023-05-09T04:46:29;99410.75;;;17.73;48.14
66857;BME280;53766;50.280;19.160;2023-05-09T04:48:56;99408.13;;;17.64;46.26
66857;BME280;53766;50.280;19.160;2023-05-09T04:51:24;99399.81;;;17.59;44.68
66857;BME280;53766;50.280;19.160;2023-05-09T04:53:52;99391.53;;;17.54;45.23
66857;BME280;53766;50.280;19.160;2023-05-09T04:56:19;99398.88;;;17.52;44.47
66857;BME280;53766;50.280;19.160;2023-05-09T04:58:48;99398.41;;;17.48;42.96
66857;BME280;53766;50.280;19.160;2023-05-09T05:01:15;99408.41;;;17.46;42.59
66857;BME280;53766;50.280;19.160;2023-05-09T05:03:43;99395.75;;;17.48;44.85
66857;BME280;53766;50.280;19.160;2023-05-09T05:06:12;99396.72;;;17.47;42.63
66857;BME280;53766;50.280;19.160;2023-05-09T05:08:39;99391.22;;;17.49;42.07
66857;BME280;53766;50.280;19.160;2023-05-09T05:11:06;99400.88;;;17.50;43.10
66857;BME280;53766;50.280;19.160;2023-05-09T05:13:34;99395.22;;;17.53;42.05
66857;BME280;53766;50.280;19.160;2023-05-09T05:16:01;99402.19;;;17.54;40.39
66857;BME280;53766;50.280;19.160;2023-05-09T05:18:29;99398.03;;;17.52;40.19
66857;BME280;53766;50.280;19.160;2023-05-09T05:20:56;99397.50;;;17.56;40.88
66857;BME280;53766;50.280;19.160;2023-05-09T05:23:24;99391.66;;;17.61;41.64
66857;BME280;53766;50.280;19.160;2023-05-09T05:25:51;99391.78;;;17.67;42.70
66857;BME280;53766;50.280;19.160;2023-05-09T05:28:19;99386.13;;;17.71;42.57
66857;BME280;53766;50.280;19.160;2023-05-09T05:30:46;99396.41;;;17.74;42.59
66857;BME280;53766;50.280;19.160;2023-05-09T05:33:13;99391.09;;;17.74;42.84
66857;BME280;53766;50.280;19.160;2023-05-09T05:35:41;99398.09;;;17.75;42.91
66857;BME280;53766;50.280;19.160;2023-05-09T05:38:08;99394.56;;;17.74;42.92
66857;BME280;53766;50.280;19.160;2023-05-09T05:40:36;99393.75;;;17.74;42.88
66857;BME280;53766;50.280;19.160;2023-05-09T05:43:03;99384.09;;;17.73;42.97
66857;BME280;53766;50.280;19.160;2023-05-09T05:45:31;99394.94;;;17.71;43.20
66857;BME280;53766;50.280;19.160;2023-05-09T05:47:58;99392.28;;;17.71;43.16
66857;BME280;53766;50.280;19.160;2023-05-09T05:50:26;99386.94;;;17.71;43.18
66857;BME280;53766;50.280;19.160;2023-05-09T05:52:53;99386.94;;;17.71;43.34
66857;BME280;53766;50.280;19.160;2023-05-09T05:55:21;99388.78;;;17.71;43.24
66857;BME280;53766;50.280;19.160;2023-05-09T05:57:48;99385.09;;;17.72;43.42
66857;BME280;53766;50.280;19.160;2023-05-09T06:00:16;99381.63;;;17.71;43.51
66857;BME280;53766;50.280;19.160;2023-05-09T06:02:43;99380.78;;;17.71;43.42
66857;BME280;53766;50.280;19.160;2023-05-09T06:05:11;99377.09;;;17.72;43.57
66857;BME280;53766;50.280;19.160;2023-05-09T06:07:38;99377.09;;;17.72;43.64
66857;BME280;53766;50.280;19.160;2023-05-09T06:10:10;99371.78;;;17.72;43.66
66857;BME280;53766;50.280;19.160;2023-05-09T06:12:37;99368.13;;;17.73;43.62
66857;BME280;53766;50.280;19.160;2023-05-09T06:15:05;99365.47;;;17.73;43.66
66857;BME280;53766;50.280;19.160;2023-05-09T06:17:33;99352.97;;;17.73;43.85
66857;BME280;53766;50.280;19.160;2023-05-09T06:20:01;99352.97;;;17.73;43.81
66857;BME280;53766;50.280;19.160;2023-05-09T06:22:28;99358.13;;;17.75;43.94
66857;BME280;53766;50.280;19.160;2023-05-09T06:24:56;99347.47;;;17.75;43.89
66857;BME280;53766;50.280;19.160;2023-05-09T06:27:23;99363.25;;;17.76;43.83
66857;BME280;53766;50.280;19.160;2023-05-09T06:29:51;99353.41;;;17.77;43.85
66857;BME280;53766;50.280;19.160;2023-05-09T06:32:18;99353.41;;;17.77;44.04
66857;BME280;53766;50.280;19.160;2023-05-09T06:34:46;99352.44;;;17.78;44.06
66857;BME280;53766;50.280;19.160;2023-05-09T06:37:14;99352.25;;;17.79;44.06
66857;BME280;53766;50.280;19.160;2023-05-09T06:39:41;99358.41;;;17.80;44.09
66857;BME280;53766;50.280;19.160;2023-05-09T06:42:09;99357.59;;;17.79;44.03
66857;BME280;53766;50.280;19.160;2023-05-09T06:44:36;99349.38;;;17.81;44.11
66857;BME280;53766;50.280;19.160;2023-05-09T06:47:03;99339.59;;;17.81;44.21
66857;BME280;53766;50.280;19.160;2023-05-09T06:49:31;99343.94;;;17.82;44.11
66857;BME280;53766;50.280;19.160;2023-05-09T06:51:58;99342.94;;;17.83;44.24
66857;BME280;53766;50.280;19.160;2023-05-09T06:54:26;99345.59;;;17.83;44.08
66857;BME280;53766;50.280;19.160;2023-05-09T06:56:53;99341.09;;;17.84;44.13
66857;BME280;53766;50.280;19.160;2023-05-09T06:59:21;99343.38;;;17.87;44.13
66857;BME280;53766;50.280;19.160;2023-05-09T07:01:48;99338.06;;;17.87;44.09
66857;BME280;53766;50.280;19.160;2023-05-09T07:04:16;99329.91;;;17.88;44.08
66857;BME280;53766;50.280;19.160;2023-05-09T07:06:43;99329.72;;;17.90;44.13
66857;BME280;53766;50.280;19.160;2023-05-09T07:09:10;99343.03;;;17.90;44.03
66857;BME280;53766;50.280;19.160;2023-05-09T07:11:40;99330.38;;;17.92;44.18
66857;BME280;53766;50.280;19.160;2023-05-09T07:14:08;99332.03;;;17.93;44.05
66857;BME280;53766;50.280;19.160;2023-05-09T07:16:35;99325.03;;;17.92;44.10
66857;BME280;53766;50.280;19.160;2023-05-09T07:19:04;99312.34;;;17.94;43.99
66857;BME280;53766;50.280;19.160;2023-05-09T07:21:32;99317.66;;;17.94;44.01
66857;BME280;53766;50.280;19.160;2023-05-09T07:24:00;99300.69;;;17.95;44.12
66857;BME280;53766;50.280;19.160;2023-05-09T07:26:28;99305.84;;;17.97;44.05
66857;BME280;53766;50.280;19.160;2023-05-09T07:28:55;99307.50;;;17.98;43.99
66857;BME280;53766;50.280;19.160;2023-05-09T07:31:23;99306.50;;;17.99;43.88
66857;BME280;53766;50.280;19.160;2023-05-09T07:33:51;99306.28;;;18.00;43.89
66857;BME280;53766;50.280;19.160;2023-05-09T07:36:18;99298.50;;;17.99;44.02
66857;BME280;53766;50.280;19.160;2023-05-09T07:38:46;99311.63;;;18.00;44.19
66857;BME280;53766;50.280;19.160;2023-05-09T07:41:16;99291.16;;;18.01;44.07
66857;BME280;53766;50.280;19.160;2023-05-09T07:43:44;99294.63;;;18.01;44.16
66857;BME280;53766;50.280;19.160;2023-05-09T07:46:11;99304.28;;;18.02;44.13
66857;BME280;53766;50.280;19.160;2023-05-09T07:48:39;99294.28;;;18.04;44.11
66857;BME280;53766;50.280;19.160;2023-05-09T07:51:06;99295.28;;;18.03;44.17
66857;BME280;53766;50.280;19.160;2023-05-09T07:53:34;99287.94;;;18.05;44.11
66857;BME280;53766;50.280;19.160;2023-05-09T07:56:02;99284.25;;;18.06;44.16
66857;BME280;53766;50.280;19.160;2023-05-09T07:58:29;99277.28;;;18.05;44.05
66857;BME280;53766;50.280;19.160;2023-05-09T08:00:57;99274.41;;;18.07;44.07
66857;BME280;53766;50.280;19.160;2023-05-09T08:03:24;99282.25;;;18.08;44.01
66857;BME280;53766;50.280;19.160;2023-05-09T08:05:53;99274.25;;;18.08;43.92
66857;BME280;53766;50.280;19.160;2023-05-09T08:08:22;99288.22;;;18.11;44.13
66857;BME280;53766;50.280;19.160;2023-05-09T08:10:49;99280.22;;;18.11;44.09
66857;BME280;53766;50.280;19.160;2023-05-09T08:13:17;99286.19;;;18.13;44.24
66857;BME280;53766;50.280;19.160;2023-05-09T08:15:45;99279.03;;;18.13;44.17
66857;BME280;53766;50.280;19.160;2023-05-09T08:18:13;99277.19;;;18.14;44.01
66857;BME280;53766;50.280;19.160;2023-05-09T08:20:41;99267.16;;;18.16;43.91
66857;BME280;53766;50.280;19.160;2023-05-09T08:23:08;99273.34;;;18.16;44.01
66857;BME280;53766;50.280;19.160;2023-05-09T08:25:37;99279.50;;;18.17;44.20
66857;BME280;53766;50.280;19.160;2023-05-09T08:28:04;99271.34;;;18.18;43.99
66857;BME280;53766;50.280;19.160;2023-05-09T08:30:32;99271.34;;;18.18;44.29
66857;BME280;53766;50.280;19.160;2023-05-09T08:33:00;99268.47;;;18.20;44.20
66857;BME280;53766;50.280;19.160;2023-05-09T08:35:27;99264.81;;;18.21;44.00
66857;BME280;53766;50.280;19.160;2023-05-09T08:37:55;99254.13;;;18.21;44.06
66857;BME280;53766;50.280;19.160;2023-05-09T08:40:22;99258.44;;;18.22;44.17
66857;BME280;53766;50.280;19.160;2023-05-09T08:42:50;99269.75;;;18.24;43.95
66857;BME280;53766;50.280;19.160;2023-05-09T08:45:25;99275.91;;;18.24;44.00
66857;BME280;53766;50.280;19.160;2023-05-09T08:47:55;99266.09;;;18.25;43.96
66857;BME280;53766;50.280;19.160;2023-05-09T08:50:23;99268.56;;;18.26;43.93
66857;BME280;53766;50.280;19.160;2023-05-09T08:52:51;99270.22;;;18.27;43.95
66857;BME280;53766;50.280;19.160;2023-05-09T08:55:19;99265.72;;;18.28;44.05
66857;BME280;53766;50.280;19.160;2023-05-09T08:57:48;99262.03;;;18.29;44.08
66857;BME280;53766;50.280;19.160;2023-05-09T09:00:16;99266.38;;;18.30;44.01
66857;BME280;53766;50.280;19.160;2023-05-09T09:02:47;99264.50;;;18.30;44.00
66857;BME280;53766;50.280;19.160;2023-05-09T09:05:15;99249.16;;;18.33;43.97
66857;BME280;53766;50.280;19.160;2023-05-09T09:08:05;99257.97;;;18.33;43.90
66857;BME280;53766;50.280;19.160;2023-05-09T09:10:33;99257.00;;;18.34;44.02
66857;BME280;53766;50.280;19.160;2023-05-09T09:13:02;99257.97;;;18.33;43.82
66857;BME280;53766;50.280;19.160;2023-05-09T09:15:35;99254.31;;;18.34;44.00
66857;BME280;53766;50.280;19.160;2023-05-09T09:18:08;99256.81;;;18.36;44.01
66857;BME280;53766;50.280;19.160;2023-05-09T09:20:47;99249.81;;;18.35;43.91
66857;BME280;53766;50.280;19.160;2023-05-09T09:23:18;99248.59;;;18.37;43.65
66857;BME280;53766;50.280;19.160;2023-05-09T09:25:47;99260.09;;;18.38;43.92
66857;BME280;53766;50.280;19.160;2023-05-09T09:28:14;99250.94;;;18.40;43.86
66857;BME280;53766;50.280;19.160;2023-05-09T09:30:48;99245.59;;;18.40;43.96
66857;BME280;53766;50.280;19.160;2023-05-09T09:33:19;99248.91;;;18.42;43.96
66857;BME280;53766;50.280;19.160;2023-05-09T09:35:48;99242.53;;;18.43;43.88
66857;BME280;53766;50.280;19.160;2023-05-09T09:38:18;99237.84;;;18.45;43.91
66857;BME280;53766;50.280;19.160;2023-05-09T09:40:52;99233.53;;;18.44;44.04
66857;BME280;53766;50.280;19.160;2023-05-09T09:43:28;99234.38;;;18.45;43.97
66857;BME280;53766;50.280;19.160;2023-05-09T09:45:56;99231.50;;;18.46;44.03
66857;BME280;53766;50.280;19.160;2023-05-09T09:48:30;99238.50;;;18.47;43.79
66857;BME280;53766;50.280;19.160;2023-05-09T09:51:07;99222.50;;;18.47;43.82
66857;BME280;53766;50.280;19.160;2023-05-09T09:53:40;99222.50;;;18.47;43.91
66857;BME280;53766;50.280;19.160;2023-05-09T09:56:08;99230.97;;;18.51;43.96
66857;BME280;53766;50.280;19.160;2023-05-09T09:58:36;99219.25;;;18.52;43.81
66857;BME280;53766;50.280;19.160;2023-05-09T10:03:39;99220.94;;;18.53;43.94
66857;BME280;53766;50.280;19.160;2023-05-09T10:06:13;99222.41;;;18.56;43.77
66857;BME280;53766;50.280;19.160;2023-05-09T10:08:43;99215.22;;;18.56;43.57
66857;BME280;53766;50.280;19.160;2023-05-09T10:11:13;99221.38;;;18.57;43.80
66857;BME280;53766;50.280;19.160;2023-05-09T10:13:42;99209.50;;;18.59;43.80
66857;BME280;53766;50.280;19.160;2023-05-09T10:16:11;99207.03;;;18.58;43.77
66857;BME280;53766;50.280;19.160;2023-05-09T10:18:40;99208.69;;;18.59;43.87
66857;BME280;53766;50.280;19.160;2023-05-09T10:21:10;99203.00;;;18.62;43.65
66857;BME280;53766;50.280;19.160;2023-05-09T10:23:42;99211.16;;;18.60;43.84
66857;BME280;53766;50.280;19.160;2023-05-09T10:26:17;99213.00;;;18.60;43.88
66857;BME280;53766;50.280;19.160;2023-05-09T10:28:52;99193.94;;;18.63;43.71
66857;BME280;53766;50.280;19.160;2023-05-09T10:31:24;99186.97;;;18.62;43.79
66857;BME280;53766;50.280;19.160;2023-05-09T10:33:53;99181.25;;;18.65;43.57
66857;BME280;53766;50.280;19.160;2023-05-09T10:36:24;99186.59;;;18.65;43.55
66857;BME280;53766;50.280;19.160;2023-05-09T10:38:54;99183.94;;;18.65;43.84
66857;BME280;53766;50.280;19.160;2023-05-09T10:41:21;99189.44;;;18.63;43.63
66857;BME280;53766;50.280;19.160;2023-05-09T10:43:50;99191.28;;;18.63;43.76
66857;BME280;53766;50.280;19.160;2023-05-09T10:46:17;99184.09;;;18.63;43.83
66857;BME280;53766;50.280;19.160;2023-05-09T10:48:46;99186.59;;;18.65;43.83
66857;BME280;53766;50.280;19.160;2023-05-09T10:51:14;99183.75;;;18.66;43.70
66857;BME280;53766;50.280;19.160;2023-05-09T10:53:44;99180.44;;;18.64;43.82
66857;BME280;53766;50.280;19.160;2023-05-09T10:56:29;99172.88;;;18.68;43.79
66857;BME280;53766;50.280;19.160;2023-05-09T10:58:58;99178.84;;;18.70;43.79
66857;BME280;53766;50.280;19.160;2023-05-09T11:01:33;99172.50;;;18.71;43.55
66857;BME280;53766;50.280;19.160;2023-05-09T11:04:09;99169.44;;;18.74;43.58
66857;BME280;53766;50.280;19.160;2023-05-09T11:11:53;99154.66;;;18.71;43.64
66857;BME280;53766;50.280;19.160;2023-05-09T11:17:14;99155.75;;;18.77;43.63
66857;BME280;53766;50.280;19.160;2023-05-09T11:22:20;99126.03;;;18.80;43.59
66857;BME280;53766;50.280;19.160;2023-05-09T11:24:50;99139.19;;;18.82;43.60
66857;BME280;53766;50.280;19.160;2023-05-09T11:27:22;99138.81;;;18.85;43.79
66857;BME280;53766;50.280;19.160;2023-05-09T11:29:57;99141.28;;;18.86;43.48
66857;BME280;53766;50.280;19.160;2023-05-09T11:32:29;99135.31;;;18.84;43.57
66857;BME280;53766;50.280;19.160;2023-05-09T11:35:05;99137.81;;;18.86;43.59
66857;BME280;53766;50.280;19.160;2023-05-09T11:37:41;99133.94;;;18.88;43.55
66857;BME280;53766;50.280;19.160;2023-05-09T11:40:12;99124.88;;;18.89;43.50
66857;BME280;53766;50.280;19.160;2023-05-09T11:42:45;99126.56;;;18.90;43.64
66857;BME280;53766;50.280;19.160;2023-05-09T11:45:13;99127.38;;;18.91;43.49
66857;BME280;53766;50.280;19.160;2023-05-09T11:47:41;99119.19;;;18.93;43.52
66857;BME280;53766;50.280;19.160;2023-05-09T11:50:11;99102.13;;;18.94;43.53
66857;BME280;53766;50.280;19.160;2023-05-09T11:52:39;99106.47;;;18.95;43.41
66857;BME280;53766;50.280;19.160;2023-05-09T11:55:12;99110.16;;;18.94;43.46
66857;BME280;53766;50.280;19.160;2023-05-09T11:57:43;99104.00;;;18.93;43.59
66857;BME280;53766;50.280;19.160;2023-05-09T12:00:11;99099.47;;;18.94;43.47
66857;BME280;53766;50.280;19.160;2023-05-09T12:02:39;99090.25;;;18.96;43.51
66857;BME280;53766;50.280;19.160;2023-05-09T12:05:14;99095.81;;;18.95;43.34
66857;BME280;53766;50.280;19.160;2023-05-09T12:07:42;99092.91;;;18.96;43.39
66857;BME280;53766;50.280;19.160;2023-05-09T12:10:12;99090.06;;;18.98;43.55
66857;BME280;53766;50.280;19.160;2023-05-09T12:15:11;99093.78;;;18.97;43.45
66857;BME280;53766;50.280;19.160;2023-05-09T12:17:44;99083.09;;;18.97;43.59
66857;BME280;53766;50.280;19.160;2023-05-09T12:20:14;99072.41;;;18.97;43.47
66857;BME280;53766;50.280;19.160;2023-05-09T12:22:42;99087.16;;;18.93;43.66
66857;BME280;53766;50.280;19.160;2023-05-09T12:25:10;99080.16;;;18.91;43.58
66857;BME280;53766;50.280;19.160;2023-05-09T12:27:39;99076.47;;;18.93;43.56
66857;BME280;53766;50.280;19.160;2023-05-09T12:30:08;99073.59;;;18.94;43.62
66857;BME280;53766;50.280;19.160;2023-05-09T12:32:37;99066.44;;;18.95;43.50
66857;BME280;53766;50.280;19.160;2023-05-09T12:35:07;99058.03;;;18.98;43.86
66857;BME280;53766;50.280;19.160;2023-05-09T12:37:35;99059.88;;;18.97;43.68
66857;BME280;53766;50.280;19.160;2023-05-09T12:40:12;99063.38;;;18.98;43.55
66857;BME280;53766;50.280;19.160;2023-05-09T12:42:44;99055.38;;;18.98;43.50
66857;BME280;53766;50.280;19.160;2023-05-09T12:45:13;99062.09;;;18.94;43.65
66857;BME280;53766;50.280;19.160;2023-05-09T12:47:42;99060.47;;;18.93;43.53
66857;BME280;53766;50.280;19.160;2023-05-09T12:50:11;99056.41;;;18.97;43.79
66857;BME280;53766;50.280;19.160;2023-05-09T12:52:40;99049.00;;;18.99;43.78
66857;BME280;53766;50.280;19.160;2023-05-09T12:55:28;99045.13;;;19.01;43.61
66857;BME280;53766;50.280;19.160;2023-05-09T12:57:57;99049.25;;;19.04;43.42
66857;BME280;53766;50.280;19.160;2023-05-09T13:00:26;99044.56;;;19.06;43.54
66857;BME280;53766;50.280;19.160;2023-05-09T13:02:53;99049.06;;;19.05;43.53
66857;BME280;53766;50.280;19.160;2023-05-09T13:05:22;99041.66;;;19.07;43.64
66857;BME280;53766;50.280;19.160;2023-05-09T13:07:50;99039.22;;;19.06;43.83
66857;BME280;53766;50.280;19.160;2023-05-09T13:10:22;99044.09;;;19.02;43.84
66857;BME280;53766;50.280;19.160;2023-05-09T13:12:50;99040.22;;;19.05;43.71
66857;BME280;53766;50.280;19.160;2023-05-09T13:15:20;99029.16;;;19.08;43.74
66857;BME280;53766;50.280;19.160;2023-05-09T13:17:50;99015.81;;;19.08;43.72
66857;BME280;53766;50.280;19.160;2023-05-09T13:20:18;99008.44;;;19.10;43.74
66857;BME280;53766;50.280;19.160;2023-05-09T13:22:45;99007.41;;;19.11;43.71
66857;BME280;53766;50.280;19.160;2023-05-09T13:25:13;99020.75;;;19.11;43.79